Latest Weather Observations for Coen Airport

IDQ60801

Issued at 5:32 pm EST Thursday 5 March 2015 (issued every 30 minutes, with the page automatically refreshed every 10 minutes)

About weather observations | Map of weather stations | Latest weather observations for QLD | Other Formats
Station Details ID: 027073 Name: COEN AIRPORT Lat: -13.76 Lon: 143.12 Height: 159.3 m
Data from the previous 72 hours. | See also: Recent months at Coen Airport
Date/Time
EST
Temp
°C
App
Temp
°C
Dew
Point
Rel
Hum
%
Delta-T
°C
Wind Press
QNH
hPa
Press
MSL
hPa
Rain
since 9 am
mm
Dir
 
Spd
km/h
Gust
km/h
Spd
kts
Gust
kts
05/05:30pm 27.8 30.7 23.2 76 3.2 NE 13 17 7 9 1006.2 - 5.8
05/05:00pm 28.6 31.1 23.1 72 3.8 NE 15 26 8 14 1006.1 - 5.8
05/04:30pm 28.1 29.5 22.8 73 3.6 NE 20 28 11 15 1005.7 - 5.8
05/04:00pm 29.6 33.4 23.5 69 4.2 NE 9 17 5 9 1005.9 - 5.8
05/03:30pm 29.3 31.0 22.3 66 4.8 ENE 17 30 9 16 1006.1 - 5.8
05/03:00pm 29.4 31.0 22.9 68 4.5 NE 19 26 10 14 1006.2 1005.2 5.8
05/02:30pm 28.5 31.6 23.6 75 3.4 NE 13 24 7 13 1006.6 - 5.8
05/02:00pm 27.5 32.3 24.5 84 2.1 NE 7 11 4 6 1007.2 - 5.6
05/01:30pm 26.0 29.2 23.1 84 2.0 ENE 11 24 6 13 1007.7 - 5.6
05/01:00pm 28.5 33.3 24.1 77 3.1 ESE 6 9 3 5 1008.1 - 2.0
05/12:30pm 26.9 32.3 23.2 80 2.5 CALM 0 15 0 8 1008.8 - 2.0
05/12:00pm 30.4 34.0 22.0 60 5.7 E 6 13 3 7 1008.8 1007.8 0.2
05/11:30am 30.5 34.0 22.1 61 5.7 ESE 7 13 4 7 1009.1 - 0.2
05/11:00am 29.5 33.4 23.0 68 4.5 NE 7 11 4 6 1009.7 - 0.2
05/10:30am 29.5 34.9 23.9 72 3.9 E 2 7 1 4 1010.0 - 0.0
05/10:00am 28.0 32.0 23.1 74 3.4 W 7 11 4 6 1010.3 - 0.0
05/09:30am 27.7 31.9 23.5 78 2.9 SW 7 11 4 6 1010.6 - 0.0
05/09:00am 26.7 30.4 23.2 81 2.4 S 9 11 5 6 1010.6 1009.6 18.6
05/08:30am 24.8 28.7 23.0 90 1.2 S 7 9 4 5 1010.4 - 18.6
05/08:00am 24.3 29.0 22.7 91 1.1 SSW 2 6 1 3 1010.1 - 18.6
05/07:30am 23.8 28.6 22.1 90 1.1 CALM 0 0 0 0 1009.7 - 18.6
05/07:00am 23.7 27.3 22.1 91 1.1 S 6 7 3 4 1009.5 - 18.6
05/06:30am 23.8 27.5 22.6 93 0.8 S 7 11 4 6 1009.3 - 18.6
05/06:00am 23.8 28.2 22.8 94 0.7 S 4 7 2 4 1009.1 1008.1 18.6
05/05:30am 23.7 27.7 22.7 94 0.7 WSW 6 7 3 4 1008.4 - 18.4
05/05:00am 23.5 27.2 22.3 93 0.8 E 6 9 3 5 1008.6 - 18.4
05/04:30am 24.3 28.4 23.3 94 0.7 E 7 11 4 6 1008.7 - 16.4
05/04:00am 24.5 29.3 23.5 94 0.7 ESE 4 9 2 5 1008.3 - 15.6
05/03:30am 24.4 29.8 23.2 93 0.8 CALM 0 0 0 0 1008.5 - 15.4
05/03:00am 24.5 28.6 23.3 93 0.8 WSW 7 9 4 5 1008.6 1007.6 15.4
05/02:30am 24.8 30.3 23.4 92 1.0 CALM 0 0 0 0 1008.8 - 15.4
05/02:00am 24.6 30.0 23.2 92 1.0 CALM 0 0 0 0 1008.8 - 15.4
05/01:30am 24.6 28.7 23.0 91 1.1 N 6 7 3 4 1009.1 - 15.4
05/01:00am 24.9 29.1 23.1 90 1.2 W 6 7 3 4 1009.8 - 15.4
05/12:30am 25.1 30.4 23.0 88 1.4 CALM 0 0 0 0 1009.7 - 15.4
05/12:00am 25.1 30.4 23.0 88 1.4 CALM 0 0 0 0 1009.9 1008.9 15.4
 
Date/Time
EST
Temp
°C
App
Temp
°C
Dew
Point
Rel
Hum
%
Delta-T
°C
Wind Press
QNH
hPa
Press
MSL
hPa
Rain
since 9 am
mm
Dir
 
Spd
km/h
Gust
km/h
Spd
kts
Gust
kts
04/11:30pm 25.4 29.7 22.7 85 1.8 ENE 4 9 2 5 1010.3 - 15.4
04/11:00pm 25.5 29.0 22.8 85 1.8 NE 9 13 5 7 1010.4 - 15.4
04/10:30pm 25.5 28.8 22.6 84 2.0 N 9 13 5 7 1010.3 - 15.4
04/10:00pm 25.7 28.9 22.4 82 2.2 N 9 11 5 6 1009.9 - 15.4
04/09:30pm 26.1 29.3 22.4 80 2.5 NNE 9 15 5 8 1009.6 - 15.4
04/09:00pm 26.4 29.8 22.0 77 3.0 NE 7 11 4 6 1009.2 1008.2 15.4
04/08:30pm 26.2 30.0 22.7 81 2.4 N 7 9 4 5 1008.7 - 15.4
04/08:00pm 26.6 31.1 22.2 77 3.0 N 2 6 1 3 1008.4 - 15.4
04/07:30pm 27.0 30.4 21.7 73 3.6 E 6 11 3 6 1008.1 - 15.4
04/07:00pm 27.2 29.6 21.5 71 3.8 E 11 17 6 9 1007.9 - 15.4
04/06:30pm 28.0 31.7 22.2 70 3.9 E 6 13 3 7 1007.4 - 15.4
04/06:00pm 28.1 33.0 23.0 74 3.5 NE 2 7 1 4 1007.1 1006.1 15.4
04/05:30pm 28.3 31.0 22.1 69 4.2 ENE 11 19 6 10 1006.9 - 15.4
04/05:00pm 29.4 30.7 21.6 63 5.3 ENE 17 26 9 14 1006.7 - 15.4
04/04:30pm 29.5 31.2 21.7 63 5.3 ENE 15 28 8 15 1006.8 - 15.4
04/04:00pm 29.9 32.3 22.3 63 5.2 ENE 13 20 7 11 1006.7 - 15.4
04/03:30pm 28.6 29.5 20.9 63 5.1 ENE 17 24 9 13 1006.8 - 15.4
04/03:00pm 29.9 31.2 21.6 61 5.6 NE 17 28 9 15 1006.9 1005.9 14.6
04/02:30pm 30.0 32.7 22.9 65 4.9 NE 13 20 7 11 1007.3 - 14.6
04/02:00pm 28.7 31.8 22.9 71 4.0 NE 11 19 6 10 1007.8 - 14.4
04/01:30pm 26.9 30.8 22.9 79 2.7 WNW 7 15 4 8 1008.2 - 14.4
04/01:00pm 25.9 26.8 22.0 79 2.6 S 20 33 11 18 1008.9 - 9.0
04/12:30pm 29.5 33.3 22.7 67 4.7 WSW 7 9 4 5 1008.9 - 4.4
04/12:00pm 27.5 31.7 22.4 73 3.5 SSW 4 30 2 16 1009.4 1008.4 4.4
04/11:30am 30.4 31.7 20.9 57 6.4 NNE 15 22 8 12 1009.7 - 0.0
04/11:00am 30.8 32.8 20.7 55 6.8 E 11 17 6 9 1009.9 - 0.0
04/10:30am 30.9 33.7 23.0 62 5.5 ENE 13 20 7 11 1010.2 - 0.0
04/10:00am 30.0 33.1 22.2 63 5.3 ENE 9 17 5 9 1010.3 - 0.0
04/09:30am 27.9 31.0 21.4 67 4.4 E 7 13 4 7 1010.3 - 0.0
04/09:00am 27.6 32.3 21.9 71 3.8 CALM 0 7 0 4 1010.2 1009.2 0.0
04/08:30am 25.9 30.2 22.6 82 2.2 SSW 4 7 2 4 1010.1 - 0.0
04/08:00am 24.5 28.5 22.7 90 1.2 S 6 7 3 4 1009.8 - 0.0
04/07:30am 24.1 28.3 22.5 91 1.1 SSW 4 7 2 4 1009.4 - 0.0
04/07:00am 23.4 28.5 22.6 95 0.5 CALM 0 0 0 0 1009.2 - 0.0
04/06:30am 23.1 28.0 22.3 95 0.5 CALM 0 0 0 0 1009.0 - 0.0
04/06:00am 22.8 27.4 21.8 94 0.7 CALM 0 0 0 0 1008.9 1007.9 0.0
04/05:30am 23.0 27.6 21.8 93 0.8 CALM 0 0 0 0 1008.6 - 0.0
04/05:00am 23.1 27.0 21.9 93 0.8 SW 4 7 2 4 1008.5 - 0.0
04/04:30am 23.3 28.1 22.1 93 0.8 CALM 0 0 0 0 1008.3 - 0.0
04/04:00am 23.5 28.3 22.1 92 0.9 CALM 0 0 0 0 1008.2 - 0.0
04/03:30am 23.6 28.4 22.2 92 0.9 CALM 0 0 0 0 1008.1 - 0.0
04/03:00am 23.7 28.1 22.1 91 1.1 ESE 2 6 1 3 1008.2 1007.2 0.0
04/02:30am 24.2 27.9 22.3 89 1.3 SE 6 9 3 5 1008.5 - 0.0
04/02:00am 24.1 27.8 22.2 89 1.3 NNE 6 9 3 5 1008.7 - 0.0
04/01:30am 24.4 27.9 22.1 87 1.5 NNE 7 11 4 6 1009.0 - 0.0
04/01:00am 24.9 28.5 22.0 84 1.9 NE 6 9 3 5 1009.3 - 0.0
04/12:30am 25.1 28.5 22.0 83 2.1 ENE 7 11 4 6 1009.5 - 0.0
04/12:00am 25.6 29.1 22.1 81 2.4 E 7 13 4 7 1009.8 1008.8 0.0
 
Date/Time
EST
Temp
°C
App
Temp
°C
Dew
Point
Rel
Hum
%
Delta-T
°C
Wind Press
QNH
hPa
Press
MSL
hPa
Rain
since 9 am
mm
Dir
 
Spd
km/h
Gust
km/h
Spd
kts
Gust
kts
03/11:30pm 25.5 29.1 22.0 81 2.4 E 6 9 3 5 1009.9 - 0.0
03/11:00pm 25.8 29.1 21.9 79 2.6 ENE 7 13 4 7 1009.7 - 0.0
03/10:30pm 26.3 29.1 21.5 75 3.2 ENE 9 13 5 7 1009.8 - 0.0
03/10:00pm 26.7 29.3 21.2 72 3.7 ENE 9 15 5 8 1009.5 - 0.0
03/09:30pm 27.2 29.2 20.8 68 4.2 ENE 11 17 6 9 1009.2 - 0.0
03/09:00pm 27.4 29.7 20.7 67 4.4 E 9 13 5 7 1009.0 1008.0 0.0
03/08:30pm 27.6 29.7 20.9 67 4.5 E 11 17 6 9 1009.2 - 0.0
03/08:00pm 27.6 30.5 20.7 66 4.6 E 6 9 3 5 1009.0 - 0.0
03/07:30pm 28.2 30.1 19.7 60 5.6 E 9 13 5 7 1008.5 - 0.0
03/07:00pm 28.6 30.8 20.3 60 5.5 ENE 9 17 5 9 1008.1 - 0.0
03/06:30pm 29.4 30.6 20.0 57 6.2 ENE 13 19 7 10 1007.6 - 0.0
03/06:00pm 30.7 31.0 19.7 52 7.3 NE 17 28 9 15 1007.1 1006.1 0.0
03/05:30pm 31.1 31.5 19.8 51 7.5 ENE 17 22 9 12 1006.9 - 0.0
03/05:00pm 31.4 32.1 20.4 52 7.3 ENE 17 28 9 15 1006.6 - 0.0
03/04:30pm 32.6 33.6 20.2 48 8.3 NE 15 24 8 13 1006.4 - 0.0
03/04:00pm 32.3 33.6 20.9 51 7.7 NE 15 22 8 12 1006.6 - 0.0
03/03:30pm 32.3 33.2 20.9 51 7.7 NE 17 24 9 13 1006.7 - 0.0
03/03:00pm 32.5 33.2 20.4 49 8.1 NE 17 28 9 15 1007.0 1006.0 0.0
03/02:30pm 31.8 32.8 21.0 52 7.3 NE 17 24 9 13 1007.4 - 0.0
03/02:00pm 31.3 33.0 20.9 54 7.0 NNE 13 22 7 12 1007.7 - 0.0
03/01:30pm 32.7 35.2 22.5 55 7.0 ENE 13 19 7 10 1007.7 - 0.0
03/01:00pm 32.4 34.3 20.6 49 7.9 NE 11 20 6 11 1008.1 - 0.0
03/12:30pm 31.3 33.2 20.6 53 7.2 ENE 11 20 6 11 1008.7 - 0.0
03/12:00pm 31.3 34.0 20.6 53 7.2 NE 7 15 4 8 1009.3 1008.3 0.0
03/11:30am 32.0 33.0 20.3 50 7.8 ENE 15 22 8 12 1009.6 - 0.0
03/11:00am 31.2 31.6 19.9 51 7.5 NE 17 24 9 13 1010.0 - 0.0
03/10:30am 31.2 32.6 21.1 55 6.8 ENE 15 24 8 13 1010.3 - 0.0
03/10:00am 30.8 32.4 20.7 55 6.8 NE 13 24 7 13 1010.4 - 0.0
03/09:30am 29.3 32.9 22.0 64 5.0 SW 6 9 3 5 1010.4 - 0.0
03/09:00am 27.9 32.6 22.6 73 3.6 WNW 2 7 1 4 1010.4 1009.4 0.0
03/08:30am 26.9 31.7 22.9 79 2.7 WSW 2 7 1 4 1010.4 - 0.0
03/08:00am 25.8 30.1 22.7 83 2.1 SSW 4 6 2 3 1010.3 - 0.0
03/07:30am 24.5 28.3 22.7 90 1.2 S 7 9 4 5 1009.9 - 0.0
03/07:00am 23.5 27.4 22.5 94 0.7 SSE 6 9 3 5 1009.7 - 0.0
03/06:30am 23.3 27.0 22.5 95 0.5 S 7 11 4 6 1009.3 - 0.0
03/06:00am 23.4 26.8 22.7 96 0.5 SSE 9 11 5 6 1008.9 1007.9 0.0
03/05:30am 23.4 27.2 22.7 96 0.5 SSE 7 9 4 5 1008.5 - 0.0
03/05:00am 23.4 27.3 22.6 95 0.5 WSW 6 9 3 5 1008.3 - 0.0
03/04:30am 23.3 27.0 22.3 94 0.7 SW 6 9 3 5 1007.9 - 0.0
03/04:00am 23.5 27.2 22.3 93 0.8 SSW 6 9 3 5 1007.7 - 0.0
03/03:30am 23.8 27.8 22.8 94 0.7 W 6 7 3 4 1007.7 - 0.0
03/03:00am 23.7 28.7 22.5 93 0.8 CALM 0 7 0 4 1007.7 1006.7 0.0
03/02:30am 23.7 28.6 22.3 92 0.9 CALM 0 0 0 0 1007.8 - 0.0
03/02:00am 23.8 27.3 22.1 90 1.1 ESE 7 9 4 5 1008.2 - 0.0
03/01:30am 23.8 26.9 22.2 91 1.1 SE 9 13 5 7 1008.8 - 0.0
03/01:00am 24.3 29.4 22.7 91 1.1 CALM 0 4 0 2 1009.1 - 0.0
03/12:30am 24.5 29.7 22.9 91 1.1 CALM 0 0 0 0 1009.2 - 0.0
03/12:00am 24.9 29.5 23.1 90 1.2 SSW 4 9 2 5 1009.3 1008.3 0.0
 
Date/Time
EST
Temp
°C
App
Temp
°C
Dew
Point
Rel
Hum
%
Delta-T
°C
Wind Press
QNH
hPa
Press
MSL
hPa
Rain
since 9 am
mm
Dir
 
Spd
km/h
Gust
km/h
Spd
kts
Gust
kts
02/11:30pm 25.3 29.5 23.4 89 1.3 ENE 7 11 4 6 1009.3 - 0.0
02/11:00pm 25.3 29.1 23.4 89 1.3 NNE 9 15 5 8 1009.0 - 0.0
02/10:30pm 25.4 30.1 23.3 88 1.4 NNE 4 9 2 5 1009.0 - 0.0
02/10:00pm 25.5 29.7 23.2 87 1.6 NNE 6 9 3 5 1008.7 - 0.0
02/09:30pm 25.8 29.4 23.1 85 1.8 N 9 13 5 7 1008.5 - 0.0
02/09:00pm 26.1 29.1 23.4 85 1.9 NNE 13 17 7 9 1008.4 1007.4 0.0
02/08:30pm 26.5 29.4 23.2 82 2.3 NE 13 20 7 11 1008.1 - 0.0
02/08:00pm 27.0 28.7 23.0 79 2.7 NE 19 26 10 14 1007.2 - 0.0
02/07:30pm 27.5 29.9 22.9 76 3.1 NE 15 22 8 12 1006.7 - 0.0
02/07:00pm 28.3 31.1 22.3 70 4.1 NE 11 15 6 8 1006.5 - 0.0
02/06:30pm 29.7 32.0 21.4 61 5.6 NE 11 19 6 10 1006.1 - 0.0
02/06:00pm 30.9 32.5 21.4 57 6.4 ENE 15 26 8 14 1005.9 1004.9 0.0

Other Formats:

Comma delimited format used in spreadsheet applications
http://www.bom.gov.au/fwo/IDQ60801/IDQ60801.94183.axf

JavaScript Object Notation format (JSON) in row-major order
http://www.bom.gov.au/fwo/IDQ60801/IDQ60801.94183.json